sensor_id;sensor_type;location;lat;lon;timestamp;temperature;humidity
21805;DHT22;11064;47.102;15.452;2023-02-25T00:02:13;4.40;99.90
21805;DHT22;11064;47.102;15.452;2023-02-25T00:04:40;4.50;99.90
21805;DHT22;11064;47.102;15.452;2023-02-25T00:07:07;4.50;99.90
21805;DHT22;11064;47.102;15.452;2023-02-25T00:09:34;4.60;99.90
21805;DHT22;11064;47.102;15.452;2023-02-25T00:12:00;4.50;99.90
21805;DHT22;11064;47.102;15.452;2023-02-25T00:14:26;4.60;99.90
21805;DHT22;11064;47.102;15.452;2023-02-25T00:16:52;4.60;99.90
21805;DHT22;11064;47.102;15.452;2023-02-25T00:19:24;4.50;99.90
21805;DHT22;11064;47.102;15.452;2023-02-25T00:21:50;4.60;99.90
21805;DHT22;11064;47.102;15.452;2023-02-25T00:24:16;4.50;99.90
21805;DHT22;11064;47.102;15.452;2023-02-25T00:26:42;4.60;99.90
21805;DHT22;11064;47.102;15.452;2023-02-25T00:29:08;4.70;99.90
21805;DHT22;11064;47.102;15.452;2023-02-25T00:31:34;4.70;99.90
21805;DHT22;11064;47.102;15.452;2023-02-25T00:34:00;4.50;99.90
21805;DHT22;11064;47.102;15.452;2023-02-25T00:36:26;4.40;99.90
21805;DHT22;11064;47.102;15.452;2023-02-25T00:38:54;4.30;99.90
21805;DHT22;11064;47.102;15.452;2023-02-25T00:41:23;4.20;99.90
21805;DHT22;11064;47.102;15.452;2023-02-25T00:43:58;4.20;99.90
21805;DHT22;11064;47.102;15.452;2023-02-25T00:46:24;4.20;99.90
21805;DHT22;11064;47.102;15.452;2023-02-25T00:48:51;4.10;99.90
21805;DHT22;11064;47.102;15.452;2023-02-25T00:51:24;4.00;99.90
21805;DHT22;11064;47.102;15.452;2023-02-25T00:53:52;3.90;99.90
21805;DHT22;11064;47.102;15.452;2023-02-25T00:56:18;3.90;99.90
21805;DHT22;11064;47.102;15.452;2023-02-25T00:58:46;3.80;99.90
21805;DHT22;11064;47.102;15.452;2023-02-25T01:01:26;3.90;99.90
21805;DHT22;11064;47.102;15.452;2023-02-25T01:03:54;4.00;99.90
21805;DHT22;11064;47.102;15.452;2023-02-25T01:06:21;4.10;99.90
21805;DHT22;11064;47.102;15.452;2023-02-25T01:08:48;4.20;99.90
21805;DHT22;11064;47.102;15.452;2023-02-25T01:11:20;4.20;99.90
21805;DHT22;11064;47.102;15.452;2023-02-25T01:13:49;4.20;99.90
21805;DHT22;11064;47.102;15.452;2023-02-25T01:16:19;4.20;99.90
21805;DHT22;11064;47.102;15.452;2023-02-25T01:18:46;4.30;99.90
21805;DHT22;11064;47.102;15.452;2023-02-25T01:21:17;4.40;99.90
21805;DHT22;11064;47.102;15.452;2023-02-25T01:23:48;4.50;99.90
21805;DHT22;11064;47.102;15.452;2023-02-25T01:26:14;4.60;99.90
21805;DHT22;11064;47.102;15.452;2023-02-25T01:28:40;4.70;99.90
21805;DHT22;11064;47.102;15.452;2023-02-25T01:31:06;4.80;99.90
21805;DHT22;11064;47.102;15.452;2023-02-25T01:33:34;4.90;99.90
21805;DHT22;11064;47.102;15.452;2023-02-25T01:36:06;4.90;99.90
21805;DHT22;11064;47.102;15.452;2023-02-25T01:38:32;5.00;99.90
21805;DHT22;11064;47.102;15.452;2023-02-25T01:40:59;5.00;99.90
21805;DHT22;11064;47.102;15.452;2023-02-25T01:43:26;5.00;99.90
21805;DHT22;11064;47.102;15.452;2023-02-25T01:45:54;5.00;99.90
21805;DHT22;11064;47.102;15.452;2023-02-25T01:48:22;5.10;99.90
21805;DHT22;11064;47.102;15.452;2023-02-25T01:50:53;5.00;99.90
21805;DHT22;11064;47.102;15.452;2023-02-25T01:53:24;5.00;99.90
21805;DHT22;11064;47.102;15.452;2023-02-25T01:55:51;5.10;99.90
21805;DHT22;11064;47.102;15.452;2023-02-25T01:58:18;5.00;99.90
21805;DHT22;11064;47.102;15.452;2023-02-25T02:00:45;5.00;99.90
21805;DHT22;11064;47.102;15.452;2023-02-25T02:03:11;5.10;99.90
21805;DHT22;11064;47.102;15.452;2023-02-25T02:08:26;5.40;99.90
21805;DHT22;11064;47.102;15.452;2023-02-25T02:10:53;5.60;99.90
21805;DHT22;11064;47.102;15.452;2023-02-25T02:13:20;5.70;99.90
21805;DHT22;11064;47.102;15.452;2023-02-25T02:18:34;5.60;99.90
21805;DHT22;11064;47.102;15.452;2023-02-25T02:32:15;5.20;99.90
21805;DHT22;11064;47.102;15.452;2023-02-25T02:37:45;5.10;99.90
21805;DHT22;11064;47.102;15.452;2023-02-25T02:40:45;5.10;99.90
21805;DHT22;11064;47.102;15.452;2023-02-25T02:46:24;5.20;99.90
21805;DHT22;11064;47.102;15.452;2023-02-25T02:49:27;5.20;99.90
21805;DHT22;11064;47.102;15.452;2023-02-25T02:52:04;5.10;99.90
21805;DHT22;11064;47.102;15.452;2023-02-25T02:54:34;5.10;99.90
21805;DHT22;11064;47.102;15.452;2023-02-25T02:57:01;5.10;99.90
21805;DHT22;11064;47.102;15.452;2023-02-25T02:59:43;5.20;99.90
21805;DHT22;11064;47.102;15.452;2023-02-25T03:02:17;5.30;99.90
21805;DHT22;11064;47.102;15.452;2023-02-25T03:04:50;5.40;99.90
21805;DHT22;11064;47.102;15.452;2023-02-25T03:07:18;5.50;99.90
21805;DHT22;11064;47.102;15.452;2023-02-25T03:09:54;5.60;99.90
21805;DHT22;11064;47.102;15.452;2023-02-25T03:12:21;5.60;99.90
21805;DHT22;11064;47.102;15.452;2023-02-25T03:14:47;5.60;99.90
21805;DHT22;11064;47.102;15.452;2023-02-25T03:17:20;5.60;99.90
21805;DHT22;11064;47.102;15.452;2023-02-25T03:19:51;5.40;99.90
21805;DHT22;11064;47.102;15.452;2023-02-25T03:22:24;5.30;99.90
21805;DHT22;11064;47.102;15.452;2023-02-25T03:25:08;5.10;99.90
21805;DHT22;11064;47.102;15.452;2023-02-25T03:27:42;5.00;99.90
21805;DHT22;11064;47.102;15.452;2023-02-25T03:30:17;4.80;99.90
21805;DHT22;11064;47.102;15.452;2023-02-25T03:32:49;4.70;99.90
21805;DHT22;11064;47.102;15.452;2023-02-25T03:35:19;4.60;99.90
21805;DHT22;11064;47.102;15.452;2023-02-25T03:37:48;4.70;99.90
21805;DHT22;11064;47.102;15.452;2023-02-25T03:40:17;4.80;99.90
21805;DHT22;11064;47.102;15.452;2023-02-25T03:43:08;5.00;99.90
21805;DHT22;11064;47.102;15.452;2023-02-25T03:45:38;5.30;99.90
21805;DHT22;11064;47.102;15.452;2023-02-25T03:48:06;5.60;99.90
21805;DHT22;11064;47.102;15.452;2023-02-25T03:50:39;5.70;99.90
21805;DHT22;11064;47.102;15.452;2023-02-25T03:53:07;6.00;99.90
21805;DHT22;11064;47.102;15.452;2023-02-25T03:55:33;6.20;99.90
21805;DHT22;11064;47.102;15.452;2023-02-25T03:57:59;6.30;99.90
21805;DHT22;11064;47.102;15.452;2023-02-25T04:00:28;6.30;99.90
21805;DHT22;11064;47.102;15.452;2023-02-25T04:02:55;6.40;99.90
21805;DHT22;11064;47.102;15.452;2023-02-25T04:05:22;6.50;99.90
21805;DHT22;11064;47.102;15.452;2023-02-25T04:07:51;6.60;99.90
21805;DHT22;11064;47.102;15.452;2023-02-25T04:10:17;6.60;99.90
21805;DHT22;11064;47.102;15.452;2023-02-25T04:12:43;6.60;99.90
21805;DHT22;11064;47.102;15.452;2023-02-25T04:15:09;6.70;99.90
21805;DHT22;11064;47.102;15.452;2023-02-25T04:17:36;6.70;99.90
21805;DHT22;11064;47.102;15.452;2023-02-25T04:20:03;6.70;99.90
21805;DHT22;11064;47.102;15.452;2023-02-25T04:22:29;6.70;99.90
21805;DHT22;11064;47.102;15.452;2023-02-25T04:24:55;6.70;99.90
21805;DHT22;11064;47.102;15.452;2023-02-25T04:27:21;6.70;99.90
21805;DHT22;11064;47.102;15.452;2023-02-25T04:29:47;6.70;99.90
21805;DHT22;11064;47.102;15.452;2023-02-25T04:32:12;6.70;99.90
21805;DHT22;11064;47.102;15.452;2023-02-25T04:34:38;6.70;99.90
21805;DHT22;11064;47.102;15.452;2023-02-25T04:37:04;6.80;99.90
21805;DHT22;11064;47.102;15.452;2023-02-25T04:39:31;6.80;99.90
21805;DHT22;11064;47.102;15.452;2023-02-25T04:41:57;6.80;99.90
21805;DHT22;11064;47.102;15.452;2023-02-25T04:44:23;6.80;99.90
21805;DHT22;11064;47.102;15.452;2023-02-25T04:46:49;6.70;99.90
21805;DHT22;11064;47.102;15.452;2023-02-25T04:49:20;6.70;99.90
21805;DHT22;11064;47.102;15.452;2023-02-25T04:51:47;6.70;99.90
21805;DHT22;11064;47.102;15.452;2023-02-25T04:54:14;6.60;99.90
21805;DHT22;11064;47.102;15.452;2023-02-25T04:56:40;6.70;99.90
21805;DHT22;11064;47.102;15.452;2023-02-25T04:59:06;6.70;99.90
21805;DHT22;11064;47.102;15.452;2023-02-25T05:01:32;6.70;99.90
21805;DHT22;11064;47.102;15.452;2023-02-25T05:03:59;6.70;99.40
21805;DHT22;11064;47.102;15.452;2023-02-25T05:06:26;6.80;98.90
21805;DHT22;11064;47.102;15.452;2023-02-25T05:08:52;6.70;98.60
21805;DHT22;11064;47.102;15.452;2023-02-25T05:11:18;6.70;98.30
21805;DHT22;11064;47.102;15.452;2023-02-25T05:13:45;6.70;99.00
21805;DHT22;11064;47.102;15.452;2023-02-25T05:16:14;6.50;98.40
21805;DHT22;11064;47.102;15.452;2023-02-25T05:18:44;6.50;99.00
21805;DHT22;11064;47.102;15.452;2023-02-25T05:21:22;6.40;99.60
21805;DHT22;11064;47.102;15.452;2023-02-25T05:23:50;6.30;99.90
21805;DHT22;11064;47.102;15.452;2023-02-25T05:26:17;6.20;99.90
21805;DHT22;11064;47.102;15.452;2023-02-25T05:28:48;6.10;99.90
21805;DHT22;11064;47.102;15.452;2023-02-25T05:31:14;5.90;99.90
21805;DHT22;11064;47.102;15.452;2023-02-25T05:33:40;5.80;99.90
21805;DHT22;11064;47.102;15.452;2023-02-25T05:36:07;5.60;99.90
21805;DHT22;11064;47.102;15.452;2023-02-25T05:38:34;5.40;99.90
21805;DHT22;11064;47.102;15.452;2023-02-25T05:41:00;5.10;99.90
21805;DHT22;11064;47.102;15.452;2023-02-25T05:43:26;4.80;99.90
21805;DHT22;11064;47.102;15.452;2023-02-25T05:45:56;4.60;99.90
21805;DHT22;11064;47.102;15.452;2023-02-25T06:01:52;4.00;99.90
21805;DHT22;11064;47.102;15.452;2023-02-25T06:04:18;4.00;99.90
21805;DHT22;11064;47.102;15.452;2023-02-25T06:06:44;4.00;99.90
21805;DHT22;11064;47.102;15.452;2023-02-25T06:09:18;4.00;99.90
21805;DHT22;11064;47.102;15.452;2023-02-25T06:11:45;4.10;99.90
21805;DHT22;11064;47.102;15.452;2023-02-25T06:14:12;4.00;99.90
21805;DHT22;11064;47.102;15.452;2023-02-25T06:16:39;4.00;99.90
21805;DHT22;11064;47.102;15.452;2023-02-25T06:19:05;4.00;99.90
21805;DHT22;11064;47.102;15.452;2023-02-25T06:21:32;4.00;99.90
21805;DHT22;11064;47.102;15.452;2023-02-25T06:24:00;4.10;99.90
21805;DHT22;11064;47.102;15.452;2023-02-25T06:26:26;4.10;99.90
21805;DHT22;11064;47.102;15.452;2023-02-25T06:28:53;4.30;99.90
21805;DHT22;11064;47.102;15.452;2023-02-25T06:31:20;4.40;99.90
21805;DHT22;11064;47.102;15.452;2023-02-25T06:33:47;4.60;99.90
21805;DHT22;11064;47.102;15.452;2023-02-25T06:36:17;4.70;99.90
21805;DHT22;11064;47.102;15.452;2023-02-25T06:38:45;4.80;99.90
21805;DHT22;11064;47.102;15.452;2023-02-25T06:41:17;4.90;99.90
21805;DHT22;11064;47.102;15.452;2023-02-25T06:43:44;5.00;99.90
21805;DHT22;11064;47.102;15.452;2023-02-25T06:46:12;5.00;99.90
21805;DHT22;11064;47.102;15.452;2023-02-25T06:48:38;5.10;99.90
21805;DHT22;11064;47.102;15.452;2023-02-25T06:51:05;5.20;99.90
21805;DHT22;11064;47.102;15.452;2023-02-25T06:53:35;5.20;99.90
21805;DHT22;11064;47.102;15.452;2023-02-25T06:56:01;5.20;99.90
21805;DHT22;11064;47.102;15.452;2023-02-25T06:58:27;5.20;99.90
21805;DHT22;11064;47.102;15.452;2023-02-25T07:00:52;5.30;99.90
21805;DHT22;11064;47.102;15.452;2023-02-25T07:03:18;5.30;99.90
21805;DHT22;11064;47.102;15.452;2023-02-25T07:05:44;5.30;99.90
21805;DHT22;11064;47.102;15.452;2023-02-25T07:08:10;5.30;99.90
21805;DHT22;11064;47.102;15.452;2023-02-25T07:10:35;5.40;99.90
21805;DHT22;11064;47.102;15.452;2023-02-25T07:13:01;5.50;99.90
21805;DHT22;11064;47.102;15.452;2023-02-25T07:15:27;5.50;99.90
21805;DHT22;11064;47.102;15.452;2023-02-25T07:17:53;5.60;99.90
21805;DHT22;11064;47.102;15.452;2023-02-25T07:20:19;5.70;99.90
21805;DHT22;11064;47.102;15.452;2023-02-25T07:22:44;5.80;99.30
21805;DHT22;11064;47.102;15.452;2023-02-25T07:25:10;5.80;99.70
21805;DHT22;11064;47.102;15.452;2023-02-25T07:27:40;5.80;99.30
21805;DHT22;11064;47.102;15.452;2023-02-25T07:30:06;5.80;97.80
21805;DHT22;11064;47.102;15.452;2023-02-25T07:32:32;5.90;97.70
21805;DHT22;11064;47.102;15.452;2023-02-25T07:34:58;6.00;96.40
21805;DHT22;11064;47.102;15.452;2023-02-25T07:37:24;6.10;95.00
21805;DHT22;11064;47.102;15.452;2023-02-25T07:39:50;6.40;95.60
21805;DHT22;11064;47.102;15.452;2023-02-25T07:42:16;6.50;94.70
21805;DHT22;11064;47.102;15.452;2023-02-25T07:44:41;6.70;92.90
21805;DHT22;11064;47.102;15.452;2023-02-25T07:47:07;6.80;93.70
21805;DHT22;11064;47.102;15.452;2023-02-25T07:49:33;7.00;94.50
21805;DHT22;11064;47.102;15.452;2023-02-25T07:51:59;7.10;92.20
21805;DHT22;11064;47.102;15.452;2023-02-25T07:54:28;7.20;91.80
21805;DHT22;11064;47.102;15.452;2023-02-25T07:56:54;7.30;91.50
21805;DHT22;11064;47.102;15.452;2023-02-25T07:59:20;7.50;91.60
21805;DHT22;11064;47.102;15.452;2023-02-25T08:01:46;7.60;89.50
21805;DHT22;11064;47.102;15.452;2023-02-25T08:04:12;7.80;90.50
21805;DHT22;11064;47.102;15.452;2023-02-25T08:06:39;7.90;87.30
21805;DHT22;11064;47.102;15.452;2023-02-25T08:09:07;7.90;90.30
21805;DHT22;11064;47.102;15.452;2023-02-25T08:11:35;7.80;86.70
21805;DHT22;11064;47.102;15.452;2023-02-25T08:14:02;7.70;87.10
21805;DHT22;11064;47.102;15.452;2023-02-25T08:16:30;7.80;87.10
21805;DHT22;11064;47.102;15.452;2023-02-25T08:18:57;8.20;89.60
21805;DHT22;11064;47.102;15.452;2023-02-25T08:21:23;8.60;88.70
21805;DHT22;11064;47.102;15.452;2023-02-25T08:23:51;8.70;83.20
21805;DHT22;11064;47.102;15.452;2023-02-25T08:26:18;9.00;83.60
21805;DHT22;11064;47.102;15.452;2023-02-25T08:28:44;9.40;79.70
21805;DHT22;11064;47.102;15.452;2023-02-25T08:31:10;9.70;75.00
21805;DHT22;11064;47.102;15.452;2023-02-25T08:33:38;9.90;74.60
21805;DHT22;11064;47.102;15.452;2023-02-25T08:36:07;10.40;74.50
21805;DHT22;11064;47.102;15.452;2023-02-25T08:38:35;10.40;71.30
21805;DHT22;11064;47.102;15.452;2023-02-25T08:41:01;10.20;71.90
21805;DHT22;11064;47.102;15.452;2023-02-25T08:43:27;10.00;71.80
21805;DHT22;11064;47.102;15.452;2023-02-25T08:45:53;10.00;66.80
21805;DHT22;11064;47.102;15.452;2023-02-25T08:48:21;10.00;69.50
21805;DHT22;11064;47.102;15.452;2023-02-25T08:50:47;9.90;69.50
21805;DHT22;11064;47.102;15.452;2023-02-25T09:35:20;9.10;68.20
21805;DHT22;11064;47.102;15.452;2023-02-25T09:37:47;8.60;69.90
21805;DHT22;11064;47.102;15.452;2023-02-25T09:40:15;8.70;72.80
21805;DHT22;11064;47.102;15.452;2023-02-25T09:42:55;8.80;73.00
21805;DHT22;11064;47.102;15.452;2023-02-25T09:45:25;8.80;69.20
21805;DHT22;11064;47.102;15.452;2023-02-25T09:48:00;8.70;70.90
21805;DHT22;11064;47.102;15.452;2023-02-25T09:50:38;8.80;72.20
21805;DHT22;11064;47.102;15.452;2023-02-25T09:53:24;8.90;69.80
21805;DHT22;11064;47.102;15.452;2023-02-25T09:55:52;8.90;68.40
21805;DHT22;11064;47.102;15.452;2023-02-25T09:58:38;9.00;70.10
21805;DHT22;11064;47.102;15.452;2023-02-25T10:01:17;9.00;71.10
21805;DHT22;11064;47.102;15.452;2023-02-25T10:12:13;9.30;66.40
21805;DHT22;11064;47.102;15.452;2023-02-25T10:14:56;9.30;64.10
21805;DHT22;11064;47.102;15.452;2023-02-25T10:17:37;9.40;65.00
21805;DHT22;11064;47.102;15.452;2023-02-25T10:26:10;9.80;62.50
21805;DHT22;11064;47.102;15.452;2023-02-25T10:28:41;9.80;64.20
21805;DHT22;11064;47.102;15.452;2023-02-25T10:31:13;10.00;64.90
21805;DHT22;11064;47.102;15.452;2023-02-25T10:33:41;10.00;63.30
21805;DHT22;11064;47.102;15.452;2023-02-25T10:36:19;10.00;60.60
21805;DHT22;11064;47.102;15.452;2023-02-25T10:38:48;10.00;61.00
21805;DHT22;11064;47.102;15.452;2023-02-25T10:41:14;10.10;61.90
21805;DHT22;11064;47.102;15.452;2023-02-25T10:43:42;10.10;59.10
21805;DHT22;11064;47.102;15.452;2023-02-25T10:49:01;10.00;56.80
21805;DHT22;11064;47.102;15.452;2023-02-25T10:51:27;10.00;55.50
21805;DHT22;11064;47.102;15.452;2023-02-25T10:56:26;10.10;57.00
21805;DHT22;11064;47.102;15.452;2023-02-25T10:59:25;10.00;54.30
21805;DHT22;11064;47.102;15.452;2023-02-25T11:01:52;10.00;54.00
21805;DHT22;11064;47.102;15.452;2023-02-25T11:04:23;9.90;53.90
21805;DHT22;11064;47.102;15.452;2023-02-25T11:06:49;10.00;54.50
21805;DHT22;11064;47.102;15.452;2023-02-25T11:11:58;10.10;54.70
21805;DHT22;11064;47.102;15.452;2023-02-25T11:14:29;10.10;54.80
21805;DHT22;11064;47.102;15.452;2023-02-25T11:17:04;10.20;55.50
21805;DHT22;11064;47.102;15.452;2023-02-25T11:19:34;10.30;54.30
21805;DHT22;11064;47.102;15.452;2023-02-25T11:22:08;10.20;53.30
21805;DHT22;11064;47.102;15.452;2023-02-25T11:24:37;10.10;53.70
21805;DHT22;11064;47.102;15.452;2023-02-25T11:27:05;10.10;53.70
21805;DHT22;11064;47.102;15.452;2023-02-25T11:29:35;10.30;54.70
21805;DHT22;11064;47.102;15.452;2023-02-25T11:32:17;10.20;54.30
21805;DHT22;11064;47.102;15.452;2023-02-25T11:37:43;10.20;54.00
21805;DHT22;11064;47.102;15.452;2023-02-25T11:40:28;10.20;53.50
21805;DHT22;11064;47.102;15.452;2023-02-25T11:45:32;10.30;54.10
21805;DHT22;11064;47.102;15.452;2023-02-25T11:47:59;10.20;53.90
21805;DHT22;11064;47.102;15.452;2023-02-25T11:50:46;10.20;53.60
21805;DHT22;11064;47.102;15.452;2023-02-25T11:58:30;10.10;54.90
21805;DHT22;11064;47.102;15.452;2023-02-25T12:03:47;10.20;54.80
21805;DHT22;11064;47.102;15.452;2023-02-25T12:06:22;10.00;54.80
21805;DHT22;11064;47.102;15.452;2023-02-25T12:14:20;10.00;54.70
21805;DHT22;11064;47.102;15.452;2023-02-25T12:40:58;9.70;55.40
21805;DHT22;11064;47.102;15.452;2023-02-25T12:46:26;9.80;56.30
21805;DHT22;11064;47.102;15.452;2023-02-25T12:53:05;9.80;55.70
21805;DHT22;11064;47.102;15.452;2023-02-25T12:55:35;9.80;54.70
21805;DHT22;11064;47.102;15.452;2023-02-25T13:03:50;10.00;54.80
21805;DHT22;11064;47.102;15.452;2023-02-25T13:15:08;9.70;55.90
21805;DHT22;11064;47.102;15.452;2023-02-25T13:20:35;9.70;55.50
21805;DHT22;11064;47.102;15.452;2023-02-25T13:23:32;9.80;55.10
21805;DHT22;11064;47.102;15.452;2023-02-25T13:31:47;9.70;55.00
21805;DHT22;11064;47.102;15.452;2023-02-25T13:39:49;9.90;56.40
21805;DHT22;11064;47.102;15.452;2023-02-25T13:56:25;9.90;55.60
21805;DHT22;11064;47.102;15.452;2023-02-25T14:02:02;9.40;57.10
21805;DHT22;11064;47.102;15.452;2023-02-25T14:05:07;9.00;56.80
21805;DHT22;11064;47.102;15.452;2023-02-25T14:13:10;9.30;57.40
21805;DHT22;11064;47.102;15.452;2023-02-25T14:18:42;9.10;56.40
21805;DHT22;11064;47.102;15.452;2023-02-25T14:21:27;9.00;57.10
21805;DHT22;11064;47.102;15.452;2023-02-25T14:45:44;8.60;57.40
21805;DHT22;11064;47.102;15.452;2023-02-25T14:59:39;8.60;58.20
21805;DHT22;11064;47.102;15.452;2023-02-25T15:22:16;7.50;59.70
21805;DHT22;11064;47.102;15.452;2023-02-25T15:24:43;7.50;59.80
21805;DHT22;11064;47.102;15.452;2023-02-25T15:27:39;7.40;59.70
21805;DHT22;11064;47.102;15.452;2023-02-25T15:30:22;7.30;60.40
21805;DHT22;11064;47.102;15.452;2023-02-25T15:33:05;7.20;60.40
21805;DHT22;11064;47.102;15.452;2023-02-25T15:35:51;7.20;61.10
21805;DHT22;11064;47.102;15.452;2023-02-25T15:38:50;7.20;60.60
21805;DHT22;11064;47.102;15.452;2023-02-25T15:43:55;7.00;61.20
21805;DHT22;11064;47.102;15.452;2023-02-25T15:49:31;6.90;60.70
21805;DHT22;11064;47.102;15.452;2023-02-25T15:52:00;6.80;62.00
21805;DHT22;11064;47.102;15.452;2023-02-25T15:56:58;6.80;61.20
21805;DHT22;11064;47.102;15.452;2023-02-25T15:59:49;6.70;61.30
21805;DHT22;11064;47.102;15.452;2023-02-25T16:02:39;6.70;63.00
21805;DHT22;11064;47.102;15.452;2023-02-25T16:07:42;6.50;62.00
21805;DHT22;11064;47.102;15.452;2023-02-25T16:10:26;6.50;62.40
21805;DHT22;11064;47.102;15.452;2023-02-25T16:12:55;6.40;63.20
21805;DHT22;11064;47.102;15.452;2023-02-25T16:15:31;6.30;63.10
21805;DHT22;11064;47.102;15.452;2023-02-25T16:18:16;6.30;62.90
21805;DHT22;11064;47.102;15.452;2023-02-25T16:20:49;6.30;64.60
21805;DHT22;11064;47.102;15.452;2023-02-25T16:23:16;6.20;63.80
21805;DHT22;11064;47.102;15.452;2023-02-25T16:28:35;6.10;64.80
21805;DHT22;11064;47.102;15.452;2023-02-25T16:31:18;6.10;64.80
21805;DHT22;11064;47.102;15.452;2023-02-25T16:37:02;5.90;66.80
21805;DHT22;11064;47.102;15.452;2023-02-25T16:39:27;5.90;65.90
21805;DHT22;11064;47.102;15.452;2023-02-25T16:42:01;5.80;65.90
21805;DHT22;11064;47.102;15.452;2023-02-25T16:44:32;5.80;66.50
21805;DHT22;11064;47.102;15.452;2023-02-25T16:47:00;5.70;68.60
21805;DHT22;11064;47.102;15.452;2023-02-25T16:49:39;5.70;68.10
21805;DHT22;11064;47.102;15.452;2023-02-25T16:52:17;5.70;70.00
21805;DHT22;11064;47.102;15.452;2023-02-25T16:54:45;5.70;71.90
21805;DHT22;11064;47.102;15.452;2023-02-25T16:57:21;5.50;76.00
21805;DHT22;11064;47.102;15.452;2023-02-25T16:59:50;5.40;76.00
21805;DHT22;11064;47.102;15.452;2023-02-25T17:02:30;5.20;77.30
21805;DHT22;11064;47.102;15.452;2023-02-25T17:04:57;5.10;78.40
21805;DHT22;11064;47.102;15.452;2023-02-25T17:07:27;5.00;80.40
21805;DHT22;11064;47.102;15.452;2023-02-25T17:10:02;4.80;81.30
21805;DHT22;11064;47.102;15.452;2023-02-25T17:12:31;4.80;81.60
21805;DHT22;11064;47.102;15.452;2023-02-25T17:15:05;4.80;82.40
21805;DHT22;11064;47.102;15.452;2023-02-25T17:17:39;4.70;84.00
21805;DHT22;11064;47.102;15.452;2023-02-25T17:20:20;4.70;84.80
21805;DHT22;11064;47.102;15.452;2023-02-25T17:22:50;4.70;83.00
21805;DHT22;11064;47.102;15.452;2023-02-25T17:25:17;4.70;85.50
21805;DHT22;11064;47.102;15.452;2023-02-25T17:27:46;4.30;91.50
21805;DHT22;11064;47.102;15.452;2023-02-25T17:33:02;3.40;97.50
21805;DHT22;11064;47.102;15.452;2023-02-25T17:35:28;3.30;99.10
21805;DHT22;11064;47.102;15.452;2023-02-25T17:37:56;3.20;99.90
21805;DHT22;11064;47.102;15.452;2023-02-25T17:40:27;3.10;99.90
21805;DHT22;11064;47.102;15.452;2023-02-25T17:45:40;2.80;99.90
21805;DHT22;11064;47.102;15.452;2023-02-25T17:48:16;2.70;99.90
21805;DHT22;11064;47.102;15.452;2023-02-25T17:50:43;2.60;99.90
21805;DHT22;11064;47.102;15.452;2023-02-25T17:53:27;2.60;99.90
21805;DHT22;11064;47.102;15.452;2023-02-25T17:55:54;2.50;99.90
21805;DHT22;11064;47.102;15.452;2023-02-25T17:58:22;2.40;99.90
21805;DHT22;11064;47.102;15.452;2023-02-25T18:00:59;2.40;99.90
21805;DHT22;11064;47.102;15.452;2023-02-25T18:03:43;2.30;99.90
21805;DHT22;11064;47.102;15.452;2023-02-25T18:06:31;2.40;99.90
21805;DHT22;11064;47.102;15.452;2023-02-25T18:08:59;2.40;99.90
21805;DHT22;11064;47.102;15.452;2023-02-25T18:11:32;2.50;99.90
21805;DHT22;11064;47.102;15.452;2023-02-25T18:14:22;2.50;99.90
21805;DHT22;11064;47.102;15.452;2023-02-25T18:16:51;2.60;99.90
21805;DHT22;11064;47.102;15.452;2023-02-25T18:19:32;2.60;99.90
21805;DHT22;11064;47.102;15.452;2023-02-25T18:22:01;2.50;99.90
21805;DHT22;11064;47.102;15.452;2023-02-25T18:24:33;2.50;99.90
21805;DHT22;11064;47.102;15.452;2023-02-25T18:29:39;2.40;99.90
21805;DHT22;11064;47.102;15.452;2023-02-25T18:32:06;2.40;99.90
21805;DHT22;11064;47.102;15.452;2023-02-25T18:34:32;2.50;99.90
21805;DHT22;11064;47.102;15.452;2023-02-25T18:36:58;2.40;99.90
21805;DHT22;11064;47.102;15.452;2023-02-25T18:39:25;2.40;99.90
21805;DHT22;11064;47.102;15.452;2023-02-25T18:41:52;2.40;99.90
21805;DHT22;11064;47.102;15.452;2023-02-25T18:44:18;2.50;99.90
21805;DHT22;11064;47.102;15.452;2023-02-25T18:46:44;2.50;99.90
21805;DHT22;11064;47.102;15.452;2023-02-25T18:49:10;2.50;99.90
21805;DHT22;11064;47.102;15.452;2023-02-25T18:51:37;2.50;99.90
21805;DHT22;11064;47.102;15.452;2023-02-25T18:54:04;2.50;99.90
21805;DHT22;11064;47.102;15.452;2023-02-25T18:56:30;2.50;99.90
21805;DHT22;11064;47.102;15.452;2023-02-25T18:58:58;2.40;99.90
21805;DHT22;11064;47.102;15.452;2023-02-25T19:01:27;2.50;99.90
21805;DHT22;11064;47.102;15.452;2023-02-25T19:03:55;2.60;99.90
21805;DHT22;11064;47.102;15.452;2023-02-25T19:06:28;2.60;99.90
21805;DHT22;11064;47.102;15.452;2023-02-25T19:08:55;2.60;99.90
21805;DHT22;11064;47.102;15.452;2023-02-25T19:11:26;2.60;99.90
21805;DHT22;11064;47.102;15.452;2023-02-25T19:13:54;2.60;99.90
21805;DHT22;11064;47.102;15.452;2023-02-25T19:16:21;2.60;99.90
21805;DHT22;11064;47.102;15.452;2023-02-25T19:18:48;2.60;99.90
21805;DHT22;11064;47.102;15.452;2023-02-25T19:21:16;2.60;99.90
21805;DHT22;11064;47.102;15.452;2023-02-25T19:23:43;2.60;99.90
21805;DHT22;11064;47.102;15.452;2023-02-25T19:26:10;2.60;99.90
21805;DHT22;11064;47.102;15.452;2023-02-25T19:28:37;2.60;99.90
21805;DHT22;11064;47.102;15.452;2023-02-25T19:31:05;2.60;99.90
21805;DHT22;11064;47.102;15.452;2023-02-25T19:33:32;2.60;99.90
21805;DHT22;11064;47.102;15.452;2023-02-25T19:36:02;2.70;99.90
21805;DHT22;11064;47.102;15.452;2023-02-25T19:38:28;2.70;99.90
21805;DHT22;11064;47.102;15.452;2023-02-25T19:41:02;2.80;99.90
21805;DHT22;11064;47.102;15.452;2023-02-25T19:43:30;2.80;99.90
21805;DHT22;11064;47.102;15.452;2023-02-25T19:45:57;2.80;99.90
21805;DHT22;11064;47.102;15.452;2023-02-25T19:48:23;2.70;99.90
21805;DHT22;11064;47.102;15.452;2023-02-25T19:50:50;2.80;99.90
21805;DHT22;11064;47.102;15.452;2023-02-25T19:53:17;2.70;99.90
21805;DHT22;11064;47.102;15.452;2023-02-25T19:55:43;2.70;99.90
21805;DHT22;11064;47.102;15.452;2023-02-25T19:58:10;2.80;99.90
21805;DHT22;11064;47.102;15.452;2023-02-25T20:00:37;2.80;99.90
21805;DHT22;11064;47.102;15.452;2023-02-25T20:03:10;2.70;99.90
21805;DHT22;11064;47.102;15.452;2023-02-25T20:05:38;2.70;99.90
21805;DHT22;11064;47.102;15.452;2023-02-25T20:08:04;2.70;99.90
21805;DHT22;11064;47.102;15.452;2023-02-25T20:10:31;2.70;99.90
21805;DHT22;11064;47.102;15.452;2023-02-25T20:12:58;2.70;99.90
21805;DHT22;11064;47.102;15.452;2023-02-25T20:15:24;2.70;99.90
21805;DHT22;11064;47.102;15.452;2023-02-25T20:17:51;2.70;99.90
21805;DHT22;11064;47.102;15.452;2023-02-25T20:20:20;2.60;99.90
21805;DHT22;11064;47.102;15.452;2023-02-25T20:22:48;2.60;99.90
21805;DHT22;11064;47.102;15.452;2023-02-25T20:25:15;2.60;99.90
21805;DHT22;11064;47.102;15.452;2023-02-25T20:27:41;2.60;99.90
21805;DHT22;11064;47.102;15.452;2023-02-25T20:30:13;2.60;99.90
21805;DHT22;11064;47.102;15.452;2023-02-25T20:32:40;2.70;99.90